sensor_id;sensor_type;location;lat;lon;timestamp;pressure;altitude;pressure_sealevel;temperature;humidity
25430;BME280;13360;48.152;-1.788;2022-10-13T00:01:50;102642.38;;;15.92;100.00
25430;BME280;13360;48.152;-1.788;2022-10-13T00:04:15;102641.53;;;15.92;100.00
25430;BME280;13360;48.152;-1.788;2022-10-13T00:06:40;102646.28;;;15.91;100.00
25430;BME280;13360;48.152;-1.788;2022-10-13T00:09:06;102648.22;;;15.91;100.00
25430;BME280;13360;48.152;-1.788;2022-10-13T00:11:31;102647.69;;;15.89;100.00
25430;BME280;13360;48.152;-1.788;2022-10-13T00:14:00;102642.09;;;15.89;100.00
25430;BME280;13360;48.152;-1.788;2022-10-13T00:16:27;102634.03;;;15.87;100.00
25430;BME280;13360;48.152;-1.788;2022-10-13T00:18:52;102630.41;;;15.87;100.00
25430;BME280;13360;48.152;-1.788;2022-10-13T00:21:21;102625.97;;;15.85;100.00
25430;BME280;13360;48.152;-1.788;2022-10-13T00:23:48;102628.47;;;15.82;100.00
25430;BME280;13360;48.152;-1.788;2022-10-13T00:26:14;102639.06;;;15.80;100.00
25430;BME280;13360;48.152;-1.788;2022-10-13T00:28:40;102637.94;;;15.81;100.00
25430;BME280;13360;48.152;-1.788;2022-10-13T00:31:24;102638.78;;;15.81;100.00
25430;BME280;13360;48.152;-1.788;2022-10-13T00:33:50;102639.91;;;15.80;100.00
25430;BME280;13360;48.152;-1.788;2022-10-13T00:36:16;102635.16;;;15.81;100.00
25430;BME280;13360;48.152;-1.788;2022-10-13T00:38:42;102649.94;;;15.81;100.00
25430;BME280;13360;48.152;-1.788;2022-10-13T00:41:08;102659.41;;;15.80;100.00
25430;BME280;13360;48.152;-1.788;2022-10-13T00:43:58;102657.19;;;15.77;100.00
25430;BME280;13360;48.152;-1.788;2022-10-13T00:46:27;102668.63;;;15.76;100.00
25430;BME280;13360;48.152;-1.788;2022-10-13T00:48:53;102672.81;;;15.73;100.00
25430;BME280;13360;48.152;-1.788;2022-10-13T00:51:25;102682.56;;;15.76;100.00
25430;BME280;13360;48.152;-1.788;2022-10-13T00:53:52;102680.59;;;15.76;100.00
25430;BME280;13360;48.152;-1.788;2022-10-13T00:56:18;102665.59;;;15.72;100.00
25430;BME280;13360;48.152;-1.788;2022-10-13T00:58:46;102656.09;;;15.73;100.00
25430;BME280;13360;48.152;-1.788;2022-10-13T01:01:12;102666.13;;;15.74;100.00
25430;BME280;13360;48.152;-1.788;2022-10-13T01:03:38;102669.50;;;15.71;100.00
25430;BME280;13360;48.152;-1.788;2022-10-13T01:06:04;102669.50;;;15.71;100.00
25430;BME280;13360;48.152;-1.788;2022-10-13T01:08:31;102672.84;;;15.68;100.00
25430;BME280;13360;48.152;-1.788;2022-10-13T01:13:53;102690.13;;;15.70;100.00
25430;BME280;13360;48.152;-1.788;2022-10-13T01:21:53;102725.78;;;15.68;100.00
25430;BME280;13360;48.152;-1.788;2022-10-13T01:24:33;102734.72;;;15.65;100.00
25430;BME280;13360;48.152;-1.788;2022-10-13T01:35:54;102785.97;;;15.64;100.00
25430;BME280;13360;48.152;-1.788;2022-10-13T01:38:51;102797.66;;;15.61;100.00
25430;BME280;13360;48.152;-1.788;2022-10-13T01:41:35;102799.88;;;15.59;100.00
25430;BME280;13360;48.152;-1.788;2022-10-13T01:44:10;102810.19;;;15.59;100.00
25430;BME280;13360;48.152;-1.788;2022-10-13T01:46:40;102807.66;;;15.57;100.00
25430;BME280;13360;48.152;-1.788;2022-10-13T01:49:12;102794.03;;;15.45;100.00
25430;BME280;13360;48.152;-1.788;2022-10-13T01:51:39;102808.50;;;15.47;100.00
25430;BME280;13360;48.152;-1.788;2022-10-13T01:54:06;102807.13;;;15.50;100.00
25430;BME280;13360;48.152;-1.788;2022-10-13T01:56:31;102809.63;;;15.51;100.00
25430;BME280;13360;48.152;-1.788;2022-10-13T01:58:58;102825.50;;;15.51;100.00
25430;BME280;13360;48.152;-1.788;2022-10-13T02:07:45;102850.84;;;15.49;100.00
25430;BME280;13360;48.152;-1.788;2022-10-13T02:10:26;102867.28;;;15.51;100.00
25430;BME280;13360;48.152;-1.788;2022-10-13T02:13:02;102872.84;;;15.51;100.00
25430;BME280;13360;48.152;-1.788;2022-10-13T02:15:39;102873.41;;;15.48;100.00
25430;BME280;13360;48.152;-1.788;2022-10-13T02:18:07;102875.34;;;15.47;100.00
25430;BME280;13360;48.152;-1.788;2022-10-13T02:20:33;102873.69;;;15.46;100.00
25430;BME280;13360;48.152;-1.788;2022-10-13T02:23:05;102881.75;;;15.48;100.00
25430;BME280;13360;48.152;-1.788;2022-10-13T02:25:32;102882.88;;;15.42;100.00
25430;BME280;13360;48.152;-1.788;2022-10-13T02:27:59;102878.41;;;15.36;100.00
25430;BME280;13360;48.152;-1.788;2022-10-13T02:30:27;102885.91;;;15.40;100.00
25430;BME280;13360;48.152;-1.788;2022-10-13T02:32:53;102894.53;;;15.39;100.00
25430;BME280;13360;48.152;-1.788;2022-10-13T02:35:19;102890.66;;;15.30;100.00
25430;BME280;13360;48.152;-1.788;2022-10-13T02:37:45;102887.59;;;15.31;100.00
25430;BME280;13360;48.152;-1.788;2022-10-13T02:40:11;102908.47;;;15.29;100.00
25430;BME280;13360;48.152;-1.788;2022-10-13T02:42:37;102925.19;;;15.34;100.00
25430;BME280;13360;48.152;-1.788;2022-10-13T02:45:03;102943.56;;;15.35;100.00
25430;BME280;13360;48.152;-1.788;2022-10-13T02:47:29;102954.13;;;15.38;100.00
25430;BME280;13360;48.152;-1.788;2022-10-13T02:49:54;102958.88;;;15.37;100.00
25430;BME280;13360;48.152;-1.788;2022-10-13T02:52:20;102965.84;;;15.35;100.00
25430;BME280;13360;48.152;-1.788;2022-10-13T02:54:45;102964.44;;;15.27;100.00
25430;BME280;13360;48.152;-1.788;2022-10-13T02:57:10;102968.06;;;15.28;100.00
25430;BME280;13360;48.152;-1.788;2022-10-13T02:59:36;102976.41;;;15.28;100.00
25430;BME280;13360;48.152;-1.788;2022-10-13T03:02:01;102976.91;;;15.19;100.00
25430;BME280;13360;48.152;-1.788;2022-10-13T03:04:27;102981.97;;;15.22;100.00
25430;BME280;13360;48.152;-1.788;2022-10-13T03:06:52;102988.94;;;15.25;100.00
25430;BME280;13360;48.152;-1.788;2022-10-13T03:09:18;102984.44;;;15.19;100.00
25430;BME280;13360;48.152;-1.788;2022-10-13T03:11:43;102985.88;;;15.21;100.00
25430;BME280;13360;48.152;-1.788;2022-10-13T03:14:08;103002.00;;;15.24;100.00
25430;BME280;13360;48.152;-1.788;2022-10-13T03:16:34;102992.56;;;15.25;100.00
25430;BME280;13360;48.152;-1.788;2022-10-13T03:18:59;103009.81;;;15.28;100.00
25430;BME280;13360;48.152;-1.788;2022-10-13T03:21:25;103010.09;;;15.31;100.00
25430;BME280;13360;48.152;-1.788;2022-10-13T03:23:50;103016.78;;;15.30;100.00
25430;BME280;13360;48.152;-1.788;2022-10-13T03:26:15;103013.72;;;15.27;100.00
25430;BME280;13360;48.152;-1.788;2022-10-13T03:28:41;103017.59;;;15.25;100.00
25430;BME280;13360;48.152;-1.788;2022-10-13T03:31:09;103030.97;;;15.29;100.00
25430;BME280;13360;48.152;-1.788;2022-10-13T03:33:35;103030.97;;;15.29;100.00
25430;BME280;13360;48.152;-1.788;2022-10-13T03:36:02;103025.97;;;15.31;100.00
25430;BME280;13360;48.152;-1.788;2022-10-13T03:38:29;103023.47;;;15.29;100.00
25430;BME280;13360;48.152;-1.788;2022-10-13T03:40:55;103030.97;;;15.29;100.00
25430;BME280;13360;48.152;-1.788;2022-10-13T03:43:21;103025.97;;;15.25;100.00
25430;BME280;13360;48.152;-1.788;2022-10-13T03:46:00;103024.84;;;15.27;100.00
25430;BME280;13360;48.152;-1.788;2022-10-13T03:48:26;103029.88;;;15.30;100.00
25430;BME280;13360;48.152;-1.788;2022-10-13T03:50:52;103039.88;;;15.25;100.00
25430;BME280;13360;48.152;-1.788;2022-10-13T03:53:17;103037.09;;;15.25;100.00
25430;BME280;13360;48.152;-1.788;2022-10-13T03:55:54;103039.88;;;15.25;100.00
25430;BME280;13360;48.152;-1.788;2022-10-13T03:58:21;103033.47;;;15.25;100.00
25430;BME280;13360;48.152;-1.788;2022-10-13T04:00:46;103035.44;;;15.24;100.00
25430;BME280;13360;48.152;-1.788;2022-10-13T04:03:12;103039.06;;;15.25;100.00
25430;BME280;13360;48.152;-1.788;2022-10-13T04:05:38;103029.03;;;15.24;100.00
25430;BME280;13360;48.152;-1.788;2022-10-13T04:08:04;103039.88;;;15.25;100.00
25430;BME280;13360;48.152;-1.788;2022-10-13T04:10:29;103053.19;;;15.18;100.00
25430;BME280;13360;48.152;-1.788;2022-10-13T04:12:55;103061.59;;;15.23;100.00
25430;BME280;13360;48.152;-1.788;2022-10-13T04:15:21;103061.03;;;15.21;100.00
25430;BME280;13360;48.152;-1.788;2022-10-13T04:17:46;103075.78;;;15.22;100.00
25430;BME280;13360;48.152;-1.788;2022-10-13T04:20:12;103067.44;;;15.22;100.00
25430;BME280;13360;48.152;-1.788;2022-10-13T04:22:37;103078.56;;;15.22;100.00
25430;BME280;13360;48.152;-1.788;2022-10-13T04:25:03;103082.16;;;15.17;100.00
25430;BME280;13360;48.152;-1.788;2022-10-13T04:27:29;103083.81;;;15.18;100.00
25430;BME280;13360;48.152;-1.788;2022-10-13T04:29:55;103083.00;;;15.18;100.00
25430;BME280;13360;48.152;-1.788;2022-10-13T04:32:20;103090.47;;;15.12;100.00
25430;BME280;13360;48.152;-1.788;2022-10-13T04:34:45;103117.22;;;15.18;100.00
25430;BME280;13360;48.152;-1.788;2022-10-13T04:37:11;103129.19;;;15.19;100.00
25430;BME280;13360;48.152;-1.788;2022-10-13T04:39:36;103124.22;;;15.21;100.00
25430;BME280;13360;48.152;-1.788;2022-10-13T04:42:02;103125.91;;;15.22;100.00
25430;BME280;13360;48.152;-1.788;2022-10-13T04:44:27;103128.69;;;15.22;100.00
25430;BME280;13360;48.152;-1.788;2022-10-13T04:46:53;103122.28;;;15.21;100.00
25430;BME280;13360;48.152;-1.788;2022-10-13T04:49:18;103117.56;;;15.22;100.00
25430;BME280;13360;48.152;-1.788;2022-10-13T04:51:43;103129.53;;;15.22;100.00
25430;BME280;13360;48.152;-1.788;2022-10-13T04:54:09;103145.97;;;15.24;100.00
25430;BME280;13360;48.152;-1.788;2022-10-13T04:56:35;103158.22;;;15.23;100.00
25430;BME280;13360;48.152;-1.788;2022-10-13T04:59:01;103179.84;;;15.16;100.00
25430;BME280;13360;48.152;-1.788;2022-10-13T05:01:26;103189.63;;;15.18;100.00
25430;BME280;13360;48.152;-1.788;2022-10-13T05:03:59;103197.47;;;15.21;100.00
25430;BME280;13360;48.152;-1.788;2022-10-13T05:06:30;103207.22;;;15.24;100.00
25430;BME280;13360;48.152;-1.788;2022-10-13T05:08:57;103212.50;;;15.25;100.00
25430;BME280;13360;48.152;-1.788;2022-10-13T05:11:23;103221.44;;;15.28;100.00
25430;BME280;13360;48.152;-1.788;2022-10-13T05:13:51;103228.66;;;15.23;100.00
25430;BME280;13360;48.152;-1.788;2022-10-13T05:16:18;103233.69;;;15.27;100.00
25430;BME280;13360;48.152;-1.788;2022-10-13T05:18:45;103231.16;;;15.25;100.00
25430;BME280;13360;48.152;-1.788;2022-10-13T05:21:14;103221.13;;;15.24;100.00
25430;BME280;13360;48.152;-1.788;2022-10-13T05:23:40;103242.56;;;15.23;100.00
25430;BME280;13360;48.152;-1.788;2022-10-13T05:26:09;103248.13;;;15.23;100.00
25430;BME280;13360;48.152;-1.788;2022-10-13T05:28:35;103272.94;;;15.25;100.00
25430;BME280;13360;48.152;-1.788;2022-10-13T05:31:16;103279.34;;;15.25;100.00
25430;BME280;13360;48.152;-1.788;2022-10-13T05:33:42;103294.41;;;15.30;100.00
25430;BME280;13360;48.152;-1.788;2022-10-13T05:36:15;103290.50;;;15.31;100.00
25430;BME280;13360;48.152;-1.788;2022-10-13T05:38:42;103295.81;;;15.32;100.00
25430;BME280;13360;48.152;-1.788;2022-10-13T05:41:10;103298.28;;;15.29;100.00
25430;BME280;13360;48.152;-1.788;2022-10-13T05:43:37;103305.50;;;15.24;100.00
25430;BME280;13360;48.152;-1.788;2022-10-13T05:46:03;103320.53;;;15.23;100.00
25430;BME280;13360;48.152;-1.788;2022-10-13T05:48:29;103337.84;;;15.31;100.00
25430;BME280;13360;48.152;-1.788;2022-10-13T05:50:57;103356.22;;;15.32;100.00
25430;BME280;13360;48.152;-1.788;2022-10-13T05:53:26;103367.59;;;15.25;100.00
25430;BME280;13360;48.152;-1.788;2022-10-13T05:55:53;103386.03;;;15.31;100.00
25430;BME280;13360;48.152;-1.788;2022-10-13T05:58:21;103410.78;;;15.28;100.00
25430;BME280;13360;48.152;-1.788;2022-10-13T06:00:47;103432.53;;;15.31;100.00
25430;BME280;13360;48.152;-1.788;2022-10-13T06:03:18;103457.31;;;15.32;100.00
25430;BME280;13360;48.152;-1.788;2022-10-13T06:05:46;103460.09;;;15.32;100.00
25430;BME280;13360;48.152;-1.788;2022-10-13T06:08:13;103486.31;;;15.36;100.00
25430;BME280;13360;48.152;-1.788;2022-10-13T06:10:40;103490.22;;;15.35;100.00
25430;BME280;13360;48.152;-1.788;2022-10-13T06:13:06;103501.03;;;15.32;100.00
25430;BME280;13360;48.152;-1.788;2022-10-13T06:15:31;103514.44;;;15.35;100.00
25430;BME280;13360;48.152;-1.788;2022-10-13T06:17:57;103530.03;;;15.36;100.00
25430;BME280;13360;48.152;-1.788;2022-10-13T06:20:22;103549.53;;;15.36;100.00
25430;BME280;13360;48.152;-1.788;2022-10-13T06:22:48;103563.72;;;15.34;100.00
25430;BME280;13360;48.152;-1.788;2022-10-13T06:25:15;103580.75;;;15.38;100.00
25430;BME280;13360;48.152;-1.788;2022-10-13T06:27:41;103589.94;;;15.38;100.00
25430;BME280;13360;48.152;-1.788;2022-10-13T06:30:07;103601.94;;;15.39;100.00
25430;BME280;13360;48.152;-1.788;2022-10-13T06:32:32;103613.91;;;15.39;100.00
25430;BME280;13360;48.152;-1.788;2022-10-13T06:34:58;103625.91;;;15.40;100.00
25430;BME280;13360;48.152;-1.788;2022-10-13T06:37:23;103646.44;;;15.34;100.00
25430;BME280;13360;48.152;-1.788;2022-10-13T06:39:48;103675.66;;;15.31;100.00
25430;BME280;13360;48.152;-1.788;2022-10-13T06:42:14;103694.38;;;15.36;100.00
25430;BME280;13360;48.152;-1.788;2022-10-13T06:44:40;103713.06;;;15.40;100.00
25430;BME280;13360;48.152;-1.788;2022-10-13T06:47:05;103730.06;;;15.39;100.00
25430;BME280;13360;48.152;-1.788;2022-10-13T06:49:31;103749.91;;;15.42;100.00
25430;BME280;13360;48.152;-1.788;2022-10-13T06:51:56;103760.22;;;15.42;100.00
25430;BME280;13360;48.152;-1.788;2022-10-13T06:54:22;103774.97;;;15.42;100.00
25430;BME280;13360;48.152;-1.788;2022-10-13T06:56:47;103806.53;;;15.48;100.00
25430;BME280;13360;48.152;-1.788;2022-10-13T06:59:12;103819.09;;;15.50;100.00
25430;BME280;13360;48.152;-1.788;2022-10-13T07:01:38;103826.09;;;15.53;100.00
25430;BME280;13360;48.152;-1.788;2022-10-13T07:04:03;103844.50;;;15.54;100.00
25430;BME280;13360;48.152;-1.788;2022-10-13T07:06:28;103836.66;;;15.51;100.00
25430;BME280;13360;48.152;-1.788;2022-10-13T07:08:54;103856.47;;;15.54;100.00
25430;BME280;13360;48.152;-1.788;2022-10-13T07:11:19;103879.38;;;15.56;100.00
25430;BME280;13360;48.152;-1.788;2022-10-13T07:13:45;103888.09;;;15.60;100.00
25430;BME280;13360;48.152;-1.788;2022-10-13T07:16:10;103909.53;;;15.60;100.00
25430;BME280;13360;48.152;-1.788;2022-10-13T07:18:36;103917.16;;;15.64;100.00
25430;BME280;13360;48.152;-1.788;2022-10-13T07:21:02;103933.88;;;15.64;100.00
25430;BME280;13360;48.152;-1.788;2022-10-13T07:23:28;103937.25;;;15.66;100.00
25430;BME280;13360;48.152;-1.788;2022-10-13T07:25:54;103949.56;;;15.70;100.00
25430;BME280;13360;48.152;-1.788;2022-10-13T07:28:22;103957.66;;;15.72;100.00
25430;BME280;13360;48.152;-1.788;2022-10-13T07:30:48;103968.56;;;15.73;100.00
25430;BME280;13360;48.152;-1.788;2022-10-13T07:33:13;103971.34;;;15.73;100.00
25430;BME280;13360;48.152;-1.788;2022-10-13T07:35:39;103988.06;;;15.73;100.00
25430;BME280;13360;48.152;-1.788;2022-10-13T07:38:05;104007.31;;;15.75;100.00
25430;BME280;13360;48.152;-1.788;2022-10-13T07:40:31;104016.78;;;15.74;100.00
25430;BME280;13360;48.152;-1.788;2022-10-13T07:42:56;104043.31;;;15.76;100.00
25430;BME280;13360;48.152;-1.788;2022-10-13T07:45:22;104060.03;;;15.76;100.00
25430;BME280;13360;48.152;-1.788;2022-10-13T07:47:47;104081.81;;;15.79;100.00
25430;BME280;13360;48.152;-1.788;2022-10-13T07:50:13;104096.84;;;15.78;100.00
25430;BME280;13360;48.152;-1.788;2022-10-13T07:52:38;104104.13;;;15.79;100.00
25430;BME280;13360;48.152;-1.788;2022-10-13T07:55:04;104112.22;;;15.81;100.00
25430;BME280;13360;48.152;-1.788;2022-10-13T07:57:30;104119.75;;;15.80;100.00
25430;BME280;13360;48.152;-1.788;2022-10-13T07:59:55;104130.91;;;15.80;100.00
25430;BME280;13360;48.152;-1.788;2022-10-13T08:02:20;104142.66;;;15.82;100.00
25430;BME280;13360;48.152;-1.788;2022-10-13T08:04:46;104148.00;;;15.84;100.00
25430;BME280;13360;48.152;-1.788;2022-10-13T08:07:11;104147.16;;;15.83;100.00
25430;BME280;13360;48.152;-1.788;2022-10-13T08:09:37;104156.69;;;15.88;100.00
25430;BME280;13360;48.152;-1.788;2022-10-13T08:12:03;104183.47;;;15.89;100.00
25430;BME280;13360;48.152;-1.788;2022-10-13T08:14:29;104200.28;;;15.94;100.00
25430;BME280;13360;48.152;-1.788;2022-10-13T08:16:56;104210.09;;;15.96;100.00
25430;BME280;13360;48.152;-1.788;2022-10-13T08:19:21;104224.97;;;16.02;100.00
25430;BME280;13360;48.152;-1.788;2022-10-13T08:21:47;104231.41;;;16.02;100.00
25430;BME280;13360;48.152;-1.788;2022-10-13T08:24:15;104237.81;;;16.03;100.00
25430;BME280;13360;48.152;-1.788;2022-10-13T08:26:42;104253.72;;;16.02;100.00
25430;BME280;13360;48.152;-1.788;2022-10-13T08:29:08;104272.16;;;16.03;100.00
25430;BME280;13360;48.152;-1.788;2022-10-13T08:31:34;104277.25;;;16.06;100.00
25430;BME280;13360;48.152;-1.788;2022-10-13T08:33:59;104278.94;;;16.07;100.00
25430;BME280;13360;48.152;-1.788;2022-10-13T08:36:25;104281.47;;;16.09;100.00
25430;BME280;13360;48.152;-1.788;2022-10-13T08:38:50;104294.06;;;16.11;100.00
25430;BME280;13360;48.152;-1.788;2022-10-13T08:41:26;104293.81;;;16.13;100.00
25430;BME280;13360;48.152;-1.788;2022-10-13T08:43:56;104307.75;;;16.13;100.00
25430;BME280;13360;48.152;-1.788;2022-10-13T08:46:28;104312.25;;;16.14;100.00
25430;BME280;13360;48.152;-1.788;2022-10-13T08:48:58;104325.09;;;16.15;100.00
25430;BME280;13360;48.152;-1.788;2022-10-13T08:51:25;104336.34;;;16.20;100.00
25430;BME280;13360;48.152;-1.788;2022-10-13T08:53:50;104329.66;;;16.21;100.00
25430;BME280;13360;48.152;-1.788;2022-10-13T08:56:19;104322.75;;;16.24;100.00
25430;BME280;13360;48.152;-1.788;2022-10-13T08:58:47;104348.22;;;16.27;100.00
25430;BME280;13360;48.152;-1.788;2022-10-13T09:01:19;104362.53;;;16.31;100.00
25430;BME280;13360;48.152;-1.788;2022-10-13T09:03:59;104371.81;;;16.36;100.00
25430;BME280;13360;48.152;-1.788;2022-10-13T09:06:37;104383.00;;;16.36;100.00
25430;BME280;13360;48.152;-1.788;2022-10-13T09:09:06;104409.88;;;16.42;100.00
25430;BME280;13360;48.152;-1.788;2022-10-13T09:11:50;104430.53;;;16.41;100.00
25430;BME280;13360;48.152;-1.788;2022-10-13T09:14:28;104442.78;;;16.40;100.00
25430;BME280;13360;48.152;-1.788;2022-10-13T09:16:56;104440.00;;;16.40;100.00
25430;BME280;13360;48.152;-1.788;2022-10-13T09:19:28;104453.09;;;16.40;100.00
25430;BME280;13360;48.152;-1.788;2022-10-13T09:24:43;104471.28;;;16.42;100.00
25430;BME280;13360;48.152;-1.788;2022-10-13T09:27:14;104491.41;;;16.44;100.00
25430;BME280;13360;48.152;-1.788;2022-10-13T09:29:41;104491.41;;;16.44;100.00
25430;BME280;13360;48.152;-1.788;2022-10-13T09:34:37;104521.50;;;16.54;100.00
25430;BME280;13360;48.152;-1.788;2022-10-13T09:37:05;104529.88;;;16.54;100.00
25430;BME280;13360;48.152;-1.788;2022-10-13T09:39:32;104535.47;;;16.54;100.00
25430;BME280;13360;48.152;-1.788;2022-10-13T09:44:41;104558.41;;;16.68;100.00
25430;BME280;13360;48.152;-1.788;2022-10-13T09:47:17;104562.03;;;16.68;100.00
25430;BME280;13360;48.152;-1.788;2022-10-13T09:49:43;104546.16;;;16.69;100.00
25430;BME280;13360;48.152;-1.788;2022-10-13T09:54:42;104542.75;;;16.67;100.00
25430;BME280;13360;48.152;-1.788;2022-10-13T09:59:46;104542.25;;;16.70;100.00
25430;BME280;13360;48.152;-1.788;2022-10-13T10:02:29;104544.31;;;16.74;100.00
25430;BME280;13360;48.152;-1.788;2022-10-13T10:05:00;104553.28;;;16.76;100.00
25430;BME280;13360;48.152;-1.788;2022-10-13T10:07:30;104544.91;;;16.76;100.00
25430;BME280;13360;48.152;-1.788;2022-10-13T10:10:04;104564.28;;;16.83;100.00
25430;BME280;13360;48.152;-1.788;2022-10-13T10:12:30;104559.81;;;16.82;100.00
25430;BME280;13360;48.152;-1.788;2022-10-13T10:14:59;104566.00;;;16.84;100.00
25430;BME280;13360;48.152;-1.788;2022-10-13T10:17:31;104557.25;;;16.81;100.00
25430;BME280;13360;48.152;-1.788;2022-10-13T10:24:12;104571.22;;;16.92;100.00
25430;BME280;13360;48.152;-1.788;2022-10-13T10:29:16;104558.84;;;16.88;100.00
25430;BME280;13360;48.152;-1.788;2022-10-13T10:31:57;104580.69;;;16.91;100.00
25430;BME280;13360;48.152;-1.788;2022-10-13T10:34:33;104586.03;;;16.93;100.00
25430;BME280;13360;48.152;-1.788;2022-10-13T10:40:05;104596.69;;;16.96;100.00
25430;BME280;13360;48.152;-1.788;2022-10-13T10:45:33;104601.19;;;16.97;100.00
25430;BME280;13360;48.152;-1.788;2022-10-13T10:48:10;104607.13;;;17.00;100.00
25430;BME280;13360;48.152;-1.788;2022-10-13T10:50:37;104592.81;;;16.97;100.00
25430;BME280;13360;48.152;-1.788;2022-10-13T10:53:12;104588.56;;;16.94;100.00
25430;BME280;13360;48.152;-1.788;2022-10-13T10:56:11;104602.03;;;16.97;100.00
25430;BME280;13360;48.152;-1.788;2022-10-13T11:01:40;104596.44;;;16.97;100.00
25430;BME280;13360;48.152;-1.788;2022-10-13T11:04:30;104588.66;;;16.99;100.00
25430;BME280;13360;48.152;-1.788;2022-10-13T11:06:57;104586.47;;;17.01;100.00
25430;BME280;13360;48.152;-1.788;2022-10-13T11:15:10;104552.94;;;17.01;100.00
25430;BME280;13360;48.152;-1.788;2022-10-13T11:17:38;104549.06;;;17.02;100.00
25430;BME280;13360;48.152;-1.788;2022-10-13T11:25:39;104489.13;;;16.93;100.00
25430;BME280;13360;48.152;-1.788;2022-10-13T11:30:54;104453.06;;;16.92;100.00
25430;BME280;13360;48.152;-1.788;2022-10-13T11:36:45;104406.94;;;16.89;100.00
25430;BME280;13360;48.152;-1.788;2022-10-13T11:42:06;104380.63;;;17.02;100.00
25430;BME280;13360;48.152;-1.788;2022-10-13T11:44:53;104368.94;;;17.05;100.00
25430;BME280;13360;48.152;-1.788;2022-10-13T11:55:54;104344.81;;;16.99;100.00
25430;BME280;13360;48.152;-1.788;2022-10-13T11:58:28;104341.38;;;16.92;100.00
25430;BME280;13360;48.152;-1.788;2022-10-13T12:01:05;104361.16;;;16.90;100.00
25430;BME280;13360;48.152;-1.788;2022-10-13T12:03:37;104381.13;;;16.99;100.00
25430;BME280;13360;48.152;-1.788;2022-10-13T12:06:06;104397.72;;;17.05;100.00
25430;BME280;13360;48.152;-1.788;2022-10-13T12:08:33;104394.34;;;17.03;100.00
25430;BME280;13360;48.152;-1.788;2022-10-13T12:11:02;104410.94;;;17.10;100.00
25430;BME280;13360;48.152;-1.788;2022-10-13T12:13:33;104413.63;;;17.05;100.00
25430;BME280;13360;48.152;-1.788;2022-10-13T12:16:04;104414.41;;;17.00;100.00
25430;BME280;13360;48.152;-1.788;2022-10-13T12:18:37;104439.78;;;16.99;100.00
25430;BME280;13360;48.152;-1.788;2022-10-13T12:21:15;104464.16;;;17.03;100.00
25430;BME280;13360;48.152;-1.788;2022-10-13T12:23:46;104470.59;;;17.04;100.00
25430;BME280;13360;48.152;-1.788;2022-10-13T12:26:15;104473.91;;;17.01;100.00
25430;BME280;13360;48.152;-1.788;2022-10-13T12:29:00;104474.56;;;16.91;100.00
25430;BME280;13360;48.152;-1.788;2022-10-13T12:31:39;104510.97;;;16.96;100.00
25430;BME280;13360;48.152;-1.788;2022-10-13T12:34:16;104528.91;;;17.00;100.00
25430;BME280;13360;48.152;-1.788;2022-10-13T12:36:44;104513.19;;;16.83;100.00
25430;BME280;13360;48.152;-1.788;2022-10-13T12:39:12;104526.56;;;16.81;100.00
25430;BME280;13360;48.152;-1.788;2022-10-13T12:41:42;104547.91;;;16.87;100.00
25430;BME280;13360;48.152;-1.788;2022-10-13T12:44:14;104546.94;;;16.81;100.00
25430;BME280;13360;48.152;-1.788;2022-10-13T12:46:43;104541.50;;;16.74;100.00
25430;BME280;13360;48.152;-1.788;2022-10-13T12:49:20;104544.91;;;16.76;100.00
25430;BME280;13360;48.152;-1.788;2022-10-13T12:51:51;104574.03;;;16.81;100.00
25430;BME280;13360;48.152;-1.788;2022-10-13T12:54:27;104578.00;;;16.85;100.00
25430;BME280;13360;48.152;-1.788;2022-10-13T12:56:56;104582.63;;;16.79;100.00
25430;BME280;13360;48.152;-1.788;2022-10-13T12:59:23;104619.19;;;16.89;100.00
25430;BME280;13360;48.152;-1.788;2022-10-13T13:02:00;104651.81;;;17.00;100.00
25430;BME280;13360;48.152;-1.788;2022-10-13T13:07:01;104667.00;;;16.93;100.00
25430;BME280;13360;48.152;-1.788;2022-10-13T13:09:29;104688.00;;;16.95;100.00
25430;BME280;13360;48.152;-1.788;2022-10-13T13:14:37;104748.97;;;17.10;100.00
25430;BME280;13360;48.152;-1.788;2022-10-13T13:19:48;104794.25;;;17.24;100.00
25430;BME280;13360;48.152;-1.788;2022-10-13T13:22:14;104786.25;;;17.16;100.00
25430;BME280;13360;48.152;-1.788;2022-10-13T13:24:40;104804.81;;;17.22;100.00
25430;BME280;13360;48.152;-1.788;2022-10-13T13:27:26;104805.31;;;17.19;100.00
25430;BME280;13360;48.152;-1.788;2022-10-13T13:29:53;104808.47;;;17.22;100.00
25430;BME280;13360;48.152;-1.788;2022-10-13T13:32:20;104813.81;;;17.24;100.00
25430;BME280;13360;48.152;-1.788;2022-10-13T13:34:47;104825.22;;;17.22;100.00
25430;BME280;13360;48.152;-1.788;2022-10-13T13:37:19;104827.78;;;17.24;100.00
25430;BME280;13360;48.152;-1.788;2022-10-13T13:39:47;104820.75;;;17.21;100.00
25430;BME280;13360;48.152;-1.788;2022-10-13T13:42:13;104850.28;;;17.29;100.00
25430;BME280;13360;48.152;-1.788;2022-10-13T13:44:39;104850.41;;;17.34;100.00
25430;BME280;13360;48.152;-1.788;2022-10-13T13:47:10;104836.78;;;17.26;100.00
25430;BME280;13360;48.152;-1.788;2022-10-13T13:49:39;104822.31;;;17.17;100.00
25430;BME280;13360;48.152;-1.788;2022-10-13T13:52:05;104855.88;;;17.29;100.00
25430;BME280;13360;48.152;-1.788;2022-10-13T13:54:30;104869.72;;;17.35;100.00
25430;BME280;13360;48.152;-1.788;2022-10-13T13:56:55;104865.09;;;17.29;100.00
25430;BME280;13360;48.152;-1.788;2022-10-13T13:59:20;104886.84;;;17.39;100.00
25430;BME280;13360;48.152;-1.788;2022-10-13T14:01:46;104854.63;;;17.25;100.00
25430;BME280;13360;48.152;-1.788;2022-10-13T14:04:11;104866.41;;;17.27;100.00
25430;BME280;13360;48.152;-1.788;2022-10-13T14:06:37;104888.44;;;17.35;100.00